Pagina principale
METAR-TAF:

METAR-TAF

Aeroporti :

Aeroporto di Rodez-Aveyron

Rodez, Francia

latitudine: 44-24N, longitudine: 002-29E, altezza: 581 m

Osservazione

Il bollettino è stato emesso 21 minuti fa, alle 06:00 UTC
Vento 6 kt da est/nord-est
Temperature 24°C
Umidità 47%
Pressione 1022 hPa
Visibilità 10 km o più
nessuna nube inferiore a 1500 m e nessun cumulonembo

METAR: LFCR 270600Z AUTO 07006KT CAVOK 24/12 Q1022 NOSIG

Ora: 08:21 (06:21 UTC)

Previsione

Il bollettino è stato emesso 1 ora e 21 minuti fa, alle 05:00 UTC
Previsione valida dal 27 alle 06 UTC al 28 alle 06 UTC
Vento 6 kt da est/sud-est
Visibilità 10 km o più
nessuna nube inferiore a 1500 m e nessun cumulonembo
Evoluzione graduale
dal 27 alle 19 UTC al 27 alle 21 UTC
Vento 2 kt da direzioni variabili

TAF: LFCR 270500Z 2706/2806 12006KT CAVOK BECMG 2719/2721 VRB02KT

Osservazioni e previsioni meteorologiche di più di 4000 aeroporti (messaggi METAR e TAF).

Le stazioni disponibili sono rappresentate dai dischi gialli e rossi sulla carta.

Puntare il mouse per vedere il nome della stazione.

Clicca sopra per visualizzare le osservazioni e previsioni meteorologiche.

Per cambiare la mappa : fare clic sui pulsanti verdi con una croce nera per ingrandire, il pulsante verde con un trattino per diminuire, o sulla freccia verde per le mappe adiacenti.


METAR-TAF: